עמוד ראשי
METAR-TAF:

METAR-TAF

שדות תעופה :

ג'ורג' טאון, גראנד קיימן, איי קיימן

קו רוחב: 19-17N, קו אורך: 081-21W, גובה: 3מטר

תצפית מזג אוויר נוכחית

הדו"ח נערך לפני 1 שעות ו 39דקות, בשעה 13:02 UTC
רוח 10קשר מכיוון דרום, משתנה בין דרום/דרום-מזרח ו דרום-מערב
טמפרטורת 27 צלסיוס
לחות 89%
לחץ 1013 hPa
ראות: 1000מטר
מעונן בגובה 1400רגל , קומולונימבוס.
סופת רעמים, גשם כבד,

METAR: MWCR 131302Z 19010KT 160V230 1000 +TSRA OVC014CB 27/25 Q1013

זמן: 09:41 (14:41 UTC)

תחזית

הדו"ח נערך לפני 3 שעות ו 41דקות, בשעה 11:00 UTC
תחזית בתוקף מ 13 ב 12 UTC עד 14 ב 12 UTC
רוח 12קשר מכיוון דרום-מזרח
ראות: 9000מטר
עננים בינוניים בגובה 1600רגל
עננים פזורים בגובה 3000רגל
ממטרי גשם
יעשה מ
13 ב 18 UTC עד 13 ב 20 UTC
ראות 10 קילומטר או יותר
עננים פזורים בגובה 1800רגל
עננים פזורים בגובה 3000רגל

TAF: MWCR 131100Z 1312/1412 14012KT 9000 SHRA BKN016 SCT030 BECMG 1318/1320 9999 SCT018 SCT030

תצפיות ותחזיות מזג אוויר לגבי יותר מ- 4,000 שדות תעופה ברחבי העולם. דוחות METAR ו- TAF.

התחנות הזמינות מסומנות בנקודות צהובות ואדומות על גבי המפה.

העבר את העכבר לנקודה הצבעונית על מנת לראות את שם התחנה.

לאחר מכן, לחץ כדי לראות את תוכן ואת תחזיות מזג האוויר.

כדי לשנות את המפה: לחץ על הכפתורים הירוקים עם הפלוס השחור כדי להתקרב; על הכפתור הירוק עם המקף כדי להתרחק; או בחיצים הירוקים למפות סמוכות.


METAR-TAF: